sensor_id;sensor_type;location;lat;lon;timestamp;pressure;altitude;pressure_sealevel;temperature;humidity
46045;BME280;31781;54.094;13.428;2023-02-17T00:01:20;101769.91;;;8.08;79.37
46045;BME280;31781;54.094;13.428;2023-02-17T00:03:23;101772.59;;;8.08;79.33
46045;BME280;31781;54.094;13.428;2023-02-17T00:05:25;101774.47;;;8.08;80.21
46045;BME280;31781;54.094;13.428;2023-02-17T00:07:29;101767.34;;;8.07;79.61
46045;BME280;31781;54.094;13.428;2023-02-17T00:09:32;101756.50;;;8.07;79.48
46045;BME280;31781;54.094;13.428;2023-02-17T00:11:35;101757.50;;;8.06;79.62
46045;BME280;31781;54.094;13.428;2023-02-17T00:13:37;101760.22;;;8.06;79.61
46045;BME280;31781;54.094;13.428;2023-02-17T00:15:39;101757.34;;;8.07;79.46
46045;BME280;31781;54.094;13.428;2023-02-17T00:17:41;101755.66;;;8.06;79.37
46045;BME280;31781;54.094;13.428;2023-02-17T00:19:43;101751.25;;;8.05;79.48
46045;BME280;31781;54.094;13.428;2023-02-17T00:21:44;101749.38;;;8.06;79.22
46045;BME280;31781;54.094;13.428;2023-02-17T00:23:47;101732.44;;;8.04;78.89
46045;BME280;31781;54.094;13.428;2023-02-17T00:25:50;101741.44;;;8.04;79.41
46045;BME280;31781;54.094;13.428;2023-02-17T00:27:52;101744.28;;;8.03;79.15
46045;BME280;31781;54.094;13.428;2023-02-17T00:29:54;101738.03;;;8.02;79.46
46045;BME280;31781;54.094;13.428;2023-02-17T00:31:56;101748.88;;;8.02;78.62
46045;BME280;31781;54.094;13.428;2023-02-17T00:33:57;101743.44;;;8.02;78.69
46045;BME280;31781;54.094;13.428;2023-02-17T00:36:02;101736.34;;;8.01;78.82
46045;BME280;31781;54.094;13.428;2023-02-17T00:38:04;101737.34;;;8.00;78.80
46045;BME280;31781;54.094;13.428;2023-02-17T00:40:07;101740.06;;;8.00;79.01
46045;BME280;31781;54.094;13.428;2023-02-17T00:42:10;101731.94;;;8.00;79.09
46045;BME280;31781;54.094;13.428;2023-02-17T00:44:15;101736.50;;;8.00;79.28
46045;BME280;31781;54.094;13.428;2023-02-17T00:46:17;101736.50;;;8.00;78.43
46045;BME280;31781;54.094;13.428;2023-02-17T00:48:19;101724.81;;;7.99;78.60
46045;BME280;31781;54.094;13.428;2023-02-17T00:50:20;101716.53;;;8.01;78.97
46045;BME280;31781;54.094;13.428;2023-02-17T00:52:22;101715.69;;;8.00;79.31
46045;BME280;31781;54.094;13.428;2023-02-17T00:54:24;101713.97;;;7.99;79.02
46045;BME280;31781;54.094;13.428;2023-02-17T00:56:25;101717.53;;;8.00;79.11
46045;BME280;31781;54.094;13.428;2023-02-17T00:58:28;101718.53;;;7.99;79.36
46045;BME280;31781;54.094;13.428;2023-02-17T01:00:30;101716.69;;;7.99;78.88
46045;BME280;31781;54.094;13.428;2023-02-17T01:02:32;101711.44;;;7.98;78.79
46045;BME280;31781;54.094;13.428;2023-02-17T01:04:33;101711.25;;;7.99;79.65
46045;BME280;31781;54.094;13.428;2023-02-17T01:06:36;101706.84;;;7.98;79.63
46045;BME280;31781;54.094;13.428;2023-02-17T01:08:38;101714.16;;;7.98;79.27
46045;BME280;31781;54.094;13.428;2023-02-17T01:10:42;101702.28;;;7.99;79.43
46045;BME280;31781;54.094;13.428;2023-02-17T01:12:44;101698.72;;;7.98;79.44
46045;BME280;31781;54.094;13.428;2023-02-17T01:14:47;101702.47;;;7.97;79.56
46045;BME280;31781;54.094;13.428;2023-02-17T01:16:49;101694.50;;;7.96;79.29
46045;BME280;31781;54.094;13.428;2023-02-17T01:18:51;101696.19;;;7.97;79.08
46045;BME280;31781;54.094;13.428;2023-02-17T01:20:53;101688.22;;;7.95;79.26
46045;BME280;31781;54.094;13.428;2023-02-17T01:22:55;101687.56;;;7.93;79.59
46045;BME280;31781;54.094;13.428;2023-02-17T01:24:56;101684.84;;;7.93;79.69
46045;BME280;31781;54.094;13.428;2023-02-17T01:26:58;101668.75;;;7.92;79.70
46045;BME280;31781;54.094;13.428;2023-02-17T01:29:00;101673.31;;;7.91;79.39
46045;BME280;31781;54.094;13.428;2023-02-17T01:31:05;101654.34;;;7.91;79.05
46045;BME280;31781;54.094;13.428;2023-02-17T01:33:08;101651.84;;;7.90;79.22
46045;BME280;31781;54.094;13.428;2023-02-17T01:35:09;101646.75;;;7.87;79.51
46045;BME280;31781;54.094;13.428;2023-02-17T01:37:11;101637.94;;;7.84;79.08
46045;BME280;31781;54.094;13.428;2023-02-17T01:39:14;101640.66;;;7.84;79.25
46045;BME280;31781;54.094;13.428;2023-02-17T01:41:19;101637.94;;;7.84;79.71
46045;BME280;31781;54.094;13.428;2023-02-17T01:43:21;101628.09;;;7.83;79.07
46045;BME280;31781;54.094;13.428;2023-02-17T01:45:35;101624.56;;;7.83;79.57
46045;BME280;31781;54.094;13.428;2023-02-17T01:47:38;101618.47;;;7.81;80.11
46045;BME280;31781;54.094;13.428;2023-02-17T01:49:40;101610.53;;;7.79;79.84
46045;BME280;31781;54.094;13.428;2023-02-17T01:51:43;101607.81;;;7.79;80.03
46045;BME280;31781;54.094;13.428;2023-02-17T01:53:52;101602.41;;;7.79;79.82
46045;BME280;31781;54.094;13.428;2023-02-17T01:55:55;101600.84;;;7.77;79.48
46045;BME280;31781;54.094;13.428;2023-02-17T01:57:58;101590.03;;;7.77;79.50
46045;BME280;31781;54.094;13.428;2023-02-17T02:00:02;101584.78;;;7.75;80.22
46045;BME280;31781;54.094;13.428;2023-02-17T02:02:05;101583.44;;;7.71;80.66
46045;BME280;31781;54.094;13.428;2023-02-17T02:04:09;101580.38;;;7.74;80.76
46045;BME280;31781;54.094;13.428;2023-02-17T02:06:14;101581.56;;;7.72;80.52
46045;BME280;31781;54.094;13.428;2023-02-17T02:08:17;101579.88;;;7.71;80.66
46045;BME280;31781;54.094;13.428;2023-02-17T02:10:19;101569.88;;;7.71;80.85
46045;BME280;31781;54.094;13.428;2023-02-17T02:12:24;101572.75;;;7.70;81.06
46045;BME280;31781;54.094;13.428;2023-02-17T02:14:26;101571.91;;;7.69;80.55
46045;BME280;31781;54.094;13.428;2023-02-17T02:16:35;101571.06;;;7.69;80.55
46045;BME280;31781;54.094;13.428;2023-02-17T02:18:46;101559.56;;;7.67;80.95
46045;BME280;31781;54.094;13.428;2023-02-17T02:21:34;101563.63;;;7.71;80.26
46045;BME280;31781;54.094;13.428;2023-02-17T02:23:52;101564.81;;;7.68;80.76
46045;BME280;31781;54.094;13.428;2023-02-17T02:26:24;101552.09;;;7.69;80.36
46045;BME280;31781;54.094;13.428;2023-02-17T02:28:47;101544.16;;;7.67;80.55
46045;BME280;31781;54.094;13.428;2023-02-17T02:31:14;101537.03;;;7.66;80.46
46045;BME280;31781;54.094;13.428;2023-02-17T02:33:28;101541.59;;;7.66;80.16
46045;BME280;31781;54.094;13.428;2023-02-17T02:35:39;101529.94;;;7.65;80.94
46045;BME280;31781;54.094;13.428;2023-02-17T02:37:51;101523.69;;;7.65;81.07
46045;BME280;31781;54.094;13.428;2023-02-17T02:39:54;101529.41;;;7.62;81.93
46045;BME280;31781;54.094;13.428;2023-02-17T02:42:00;101519.28;;;7.64;81.15
46045;BME280;31781;54.094;13.428;2023-02-17T02:44:04;101522.00;;;7.64;81.41
46045;BME280;31781;54.094;13.428;2023-02-17T02:46:07;101509.28;;;7.64;81.12
46045;BME280;31781;54.094;13.428;2023-02-17T02:48:09;101511.16;;;7.64;81.20
46045;BME280;31781;54.094;13.428;2023-02-17T02:50:16;101499.47;;;7.63;81.60
46045;BME280;31781;54.094;13.428;2023-02-17T02:52:26;101485.94;;;7.63;81.60
46045;BME280;31781;54.094;13.428;2023-02-17T02:54:44;101483.06;;;7.65;81.40
46045;BME280;31781;54.094;13.428;2023-02-17T02:57:01;101474.25;;;7.63;81.12
46045;BME280;31781;54.094;13.428;2023-02-17T02:59:14;101473.41;;;7.62;81.94
46045;BME280;31781;54.094;13.428;2023-02-17T03:01:26;101472.22;;;7.65;81.13
46045;BME280;31781;54.094;13.428;2023-02-17T03:03:39;101468.84;;;7.63;81.50
46045;BME280;31781;54.094;13.428;2023-02-17T03:05:51;101465.97;;;7.64;81.51
46045;BME280;31781;54.094;13.428;2023-02-17T03:07:59;101451.72;;;7.62;82.45
46045;BME280;31781;54.094;13.428;2023-02-17T03:10:04;101438.38;;;7.61;82.10
46045;BME280;31781;54.094;13.428;2023-02-17T03:12:06;101439.03;;;7.63;81.80
46045;BME280;31781;54.094;13.428;2023-02-17T03:14:10;101426.69;;;7.60;81.62
46045;BME280;31781;54.094;13.428;2023-02-17T03:16:12;101432.78;;;7.62;81.72
46045;BME280;31781;54.094;13.428;2023-02-17T03:18:14;101431.91;;;7.62;81.73
46045;BME280;31781;54.094;13.428;2023-02-17T03:20:16;101429.22;;;7.62;82.00
46045;BME280;31781;54.094;13.428;2023-02-17T03:22:22;101427.34;;;7.62;82.33
46045;BME280;31781;54.094;13.428;2023-02-17T03:24:26;101423.81;;;7.62;82.16
46045;BME280;31781;54.094;13.428;2023-02-17T03:26:28;101421.28;;;7.60;82.17
46045;BME280;31781;54.094;13.428;2023-02-17T03:28:29;101430.06;;;7.62;82.02
46045;BME280;31781;54.094;13.428;2023-02-17T03:30:31;101430.06;;;7.62;82.26
46045;BME280;31781;54.094;13.428;2023-02-17T03:32:33;101431.91;;;7.62;82.57
46045;BME280;31781;54.094;13.428;2023-02-17T03:34:35;101429.06;;;7.63;82.30
46045;BME280;31781;54.094;13.428;2023-02-17T03:36:37;101419.91;;;7.64;82.00
46045;BME280;31781;54.094;13.428;2023-02-17T03:38:40;101418.06;;;7.65;82.10
46045;BME280;31781;54.094;13.428;2023-02-17T03:40:42;101412.66;;;7.65;82.09
46045;BME280;31781;54.094;13.428;2023-02-17T03:42:43;101415.16;;;7.66;82.32
46045;BME280;31781;54.094;13.428;2023-02-17T03:44:45;101409.75;;;7.66;82.68
46045;BME280;31781;54.094;13.428;2023-02-17T03:46:46;101401.81;;;7.65;82.73
46045;BME280;31781;54.094;13.428;2023-02-17T03:48:48;101412.44;;;7.66;82.74
46045;BME280;31781;54.094;13.428;2023-02-17T03:50:50;101402.31;;;7.68;82.66
46045;BME280;31781;54.094;13.428;2023-02-17T03:52:51;101406.88;;;7.68;83.04
46045;BME280;31781;54.094;13.428;2023-02-17T03:54:55;101391.63;;;7.67;82.52
46045;BME280;31781;54.094;13.428;2023-02-17T03:56:56;101400.41;;;7.69;82.86
46045;BME280;31781;54.094;13.428;2023-02-17T03:58:58;101398.56;;;7.69;82.72
46045;BME280;31781;54.094;13.428;2023-02-17T04:01:00;101409.22;;;7.71;82.50
46045;BME280;31781;54.094;13.428;2023-02-17T04:03:02;101394.00;;;7.70;82.06
46045;BME280;31781;54.094;13.428;2023-02-17T04:05:04;101404.66;;;7.71;82.83
46045;BME280;31781;54.094;13.428;2023-02-17T04:07:06;101410.72;;;7.73;82.43
46045;BME280;31781;54.094;13.428;2023-02-17T04:09:07;101407.88;;;7.75;82.24
46045;BME280;31781;54.094;13.428;2023-02-17T04:11:10;101403.28;;;7.75;82.46
46045;BME280;31781;54.094;13.428;2023-02-17T04:13:12;101403.28;;;7.75;82.40
46045;BME280;31781;54.094;13.428;2023-02-17T04:15:14;101401.25;;;7.77;82.64
46045;BME280;31781;54.094;13.428;2023-02-17T04:17:16;101402.25;;;7.76;82.86
46045;BME280;31781;54.094;13.428;2023-02-17T04:19:17;101391.41;;;7.76;82.58
46045;BME280;31781;54.094;13.428;2023-02-17T04:21:21;101387.69;;;7.77;82.39
46045;BME280;31781;54.094;13.428;2023-02-17T04:23:23;101388.38;;;7.79;82.61
46045;BME280;31781;54.094;13.428;2023-02-17T04:25:24;101387.34;;;7.80;82.19
46045;BME280;31781;54.094;13.428;2023-02-17T04:27:28;101388.19;;;7.81;82.75
46045;BME280;31781;54.094;13.428;2023-02-17T04:29:30;101381.75;;;7.82;82.16
46045;BME280;31781;54.094;13.428;2023-02-17T04:31:32;101375.50;;;7.81;82.92
46045;BME280;31781;54.094;13.428;2023-02-17T04:33:34;101369.91;;;7.83;82.40
46045;BME280;31781;54.094;13.428;2023-02-17T04:35:36;101372.44;;;7.84;82.64
46045;BME280;31781;54.094;13.428;2023-02-17T04:37:37;101372.44;;;7.84;82.87
46045;BME280;31781;54.094;13.428;2023-02-17T04:39:39;101371.41;;;7.86;82.87
46045;BME280;31781;54.094;13.428;2023-02-17T04:41:41;101372.25;;;7.86;82.56
46045;BME280;31781;54.094;13.428;2023-02-17T04:43:44;101374.78;;;7.88;82.51
46045;BME280;31781;54.094;13.428;2023-02-17T04:45:45;101372.91;;;7.88;82.83
46045;BME280;31781;54.094;13.428;2023-02-17T04:47:47;101351.44;;;7.87;82.98
46045;BME280;31781;54.094;13.428;2023-02-17T04:49:49;101359.22;;;7.90;82.72
46045;BME280;31781;54.094;13.428;2023-02-17T04:51:50;101347.34;;;7.91;82.59
46045;BME280;31781;54.094;13.428;2023-02-17T04:53:52;101345.66;;;7.90;82.95
46045;BME280;31781;54.094;13.428;2023-02-17T04:55:54;101345.66;;;7.90;83.42
46045;BME280;31781;54.094;13.428;2023-02-17T04:57:56;101344.66;;;7.91;82.94
46045;BME280;31781;54.094;13.428;2023-02-17T04:59:59;101350.06;;;7.91;83.18
46045;BME280;31781;54.094;13.428;2023-02-17T05:02:00;101357.16;;;7.92;83.26
46045;BME280;31781;54.094;13.428;2023-02-17T05:04:02;101356.13;;;7.93;82.77
46045;BME280;31781;54.094;13.428;2023-02-17T05:06:05;101347.00;;;7.94;83.29
46045;BME280;31781;54.094;13.428;2023-02-17T05:08:07;101338.88;;;7.94;83.36
46045;BME280;31781;54.094;13.428;2023-02-17T05:10:10;101334.31;;;7.94;83.15
46045;BME280;31781;54.094;13.428;2023-02-17T05:12:12;101326.16;;;7.94;83.36
46045;BME280;31781;54.094;13.428;2023-02-17T05:14:13;101329.53;;;7.96;82.81
46045;BME280;31781;54.094;13.428;2023-02-17T05:16:17;101319.53;;;7.97;83.19
46045;BME280;31781;54.094;13.428;2023-02-17T05:18:18;101324.75;;;7.98;82.77
46045;BME280;31781;54.094;13.428;2023-02-17T05:20:20;101322.91;;;7.99;83.31
46045;BME280;31781;54.094;13.428;2023-02-17T05:22:22;101317.31;;;8.00;83.03
46045;BME280;31781;54.094;13.428;2023-02-17T05:24:23;101315.25;;;8.02;82.81
46045;BME280;31781;54.094;13.428;2023-02-17T05:26:25;101308.19;;;8.01;83.10
46045;BME280;31781;54.094;13.428;2023-02-17T05:28:27;101302.56;;;8.03;83.29
46045;BME280;31781;54.094;13.428;2023-02-17T05:30:29;101304.09;;;8.05;83.37
46045;BME280;31781;54.094;13.428;2023-02-17T05:32:32;101307.63;;;8.06;83.43
46045;BME280;31781;54.094;13.428;2023-02-17T05:34:34;101303.03;;;8.06;83.11
46045;BME280;31781;54.094;13.428;2023-02-17T05:36:36;101296.44;;;8.09;83.44
46045;BME280;31781;54.094;13.428;2023-02-17T05:38:38;101291.84;;;8.09;83.88
46045;BME280;31781;54.094;13.428;2023-02-17T05:40:40;101291.66;;;8.11;84.00
46045;BME280;31781;54.094;13.428;2023-02-17T05:42:42;101289.97;;;8.10;84.28
46045;BME280;31781;54.094;13.428;2023-02-17T05:44:44;101280.81;;;8.11;84.20
46045;BME280;31781;54.094;13.428;2023-02-17T05:46:46;101276.91;;;8.13;84.53
46045;BME280;31781;54.094;13.428;2023-02-17T05:48:49;101261.50;;;8.14;84.39
46045;BME280;31781;54.094;13.428;2023-02-17T05:50:51;101264.19;;;8.14;84.45
46045;BME280;31781;54.094;13.428;2023-02-17T05:52:53;101258.63;;;8.15;84.55
46045;BME280;31781;54.094;13.428;2023-02-17T05:54:54;101256.75;;;8.16;84.36
46045;BME280;31781;54.094;13.428;2023-02-17T05:56:56;101265.53;;;8.18;84.52
46045;BME280;31781;54.094;13.428;2023-02-17T05:58:58;101263.66;;;8.18;84.64
46045;BME280;31781;54.094;13.428;2023-02-17T06:01:00;101272.44;;;8.20;83.86
46045;BME280;31781;54.094;13.428;2023-02-17T06:03:01;101266.22;;;8.20;84.25
46045;BME280;31781;54.094;13.428;2023-02-17T06:05:05;101258.72;;;8.22;84.38
46045;BME280;31781;54.094;13.428;2023-02-17T06:07:07;101253.31;;;8.22;85.26
46045;BME280;31781;54.094;13.428;2023-02-17T06:09:09;101246.03;;;8.22;85.07
46045;BME280;31781;54.094;13.428;2023-02-17T06:11:11;101239.22;;;8.26;84.35
46045;BME280;31781;54.094;13.428;2023-02-17T06:13:12;101234.63;;;8.27;84.54
46045;BME280;31781;54.094;13.428;2023-02-17T06:15:14;101236.31;;;8.28;84.99
46045;BME280;31781;54.094;13.428;2023-02-17T06:17:16;101236.16;;;8.29;84.87
46045;BME280;31781;54.094;13.428;2023-02-17T06:19:18;101233.28;;;8.31;84.53
46045;BME280;31781;54.094;13.428;2023-02-17T06:21:22;101232.22;;;8.32;84.48
46045;BME280;31781;54.094;13.428;2023-02-17T06:23:24;101230.38;;;8.32;85.30
46045;BME280;31781;54.094;13.428;2023-02-17T06:25:26;101232.91;;;8.34;85.21
46045;BME280;31781;54.094;13.428;2023-02-17T06:27:27;101235.41;;;8.36;84.89
46045;BME280;31781;54.094;13.428;2023-02-17T06:29:29;101226.09;;;8.38;84.53
46045;BME280;31781;54.094;13.428;2023-02-17T06:31:31;101219.63;;;8.39;85.14
46045;BME280;31781;54.094;13.428;2023-02-17T06:33:35;101215.91;;;8.40;84.40
46045;BME280;31781;54.094;13.428;2023-02-17T06:35:36;101215.72;;;8.42;85.19
46045;BME280;31781;54.094;13.428;2023-02-17T06:37:40;101209.25;;;8.43;84.68
46045;BME280;31781;54.094;13.428;2023-02-17T06:39:41;101213.50;;;8.45;84.76
46045;BME280;31781;54.094;13.428;2023-02-17T06:41:43;101203.28;;;8.47;84.86
46045;BME280;31781;54.094;13.428;2023-02-17T06:43:45;101197.88;;;8.47;84.87
46045;BME280;31781;54.094;13.428;2023-02-17T06:45:46;101208.34;;;8.50;84.75
46045;BME280;31781;54.094;13.428;2023-02-17T06:47:48;101199.84;;;8.53;84.71
46045;BME280;31781;54.094;13.428;2023-02-17T06:49:49;101209.00;;;8.52;85.37
46045;BME280;31781;54.094;13.428;2023-02-17T06:51:51;101200.50;;;8.55;85.61
46045;BME280;31781;54.094;13.428;2023-02-17T06:53:55;101202.00;;;8.58;85.43
46045;BME280;31781;54.094;13.428;2023-02-17T06:55:56;101189.28;;;8.58;85.24
46045;BME280;31781;54.094;13.428;2023-02-17T06:57:58;101197.25;;;8.60;85.04
46045;BME280;31781;54.094;13.428;2023-02-17T06:59:59;101205.19;;;8.61;85.03
46045;BME280;31781;54.094;13.428;2023-02-17T07:02:01;101206.69;;;8.64;85.20
46045;BME280;31781;54.094;13.428;2023-02-17T07:04:03;101205.84;;;8.63;85.44
46045;BME280;31781;54.094;13.428;2023-02-17T07:06:05;101193.97;;;8.64;85.55
46045;BME280;31781;54.094;13.428;2023-02-17T07:08:07;101185.63;;;8.66;85.38
46045;BME280;31781;54.094;13.428;2023-02-17T07:10:11;101183.59;;;8.68;85.04
46045;BME280;31781;54.094;13.428;2023-02-17T07:12:12;101179.84;;;8.69;85.68
46045;BME280;31781;54.094;13.428;2023-02-17T07:14:14;101181.69;;;8.68;86.03
46045;BME280;31781;54.094;13.428;2023-02-17T07:16:16;101183.22;;;8.71;85.66
46045;BME280;31781;54.094;13.428;2023-02-17T07:18:18;101171.34;;;8.72;85.36
46045;BME280;31781;54.094;13.428;2023-02-17T07:20:19;101169.44;;;8.72;85.96
46045;BME280;31781;54.094;13.428;2023-02-17T07:22:21;101172.00;;;8.74;85.94
46045;BME280;31781;54.094;13.428;2023-02-17T07:24:23;101160.13;;;8.75;85.71
46045;BME280;31781;54.094;13.428;2023-02-17T07:26:26;101138.22;;;8.76;86.08
46045;BME280;31781;54.094;13.428;2023-02-17T07:28:28;101146.19;;;8.78;86.16
46045;BME280;31781;54.094;13.428;2023-02-17T07:30:29;101144.47;;;8.77;86.55
46045;BME280;31781;54.094;13.428;2023-02-17T07:32:31;101152.25;;;8.80;86.31
46045;BME280;31781;54.094;13.428;2023-02-17T07:34:33;101148.69;;;8.79;86.08
46045;BME280;31781;54.094;13.428;2023-02-17T07:36:35;101145.63;;;8.83;86.63
46045;BME280;31781;54.094;13.428;2023-02-17T07:38:37;101148.13;;;8.84;86.58
46045;BME280;31781;54.094;13.428;2023-02-17T07:40:39;101150.66;;;8.86;86.90
46045;BME280;31781;54.094;13.428;2023-02-17T07:42:42;101153.16;;;8.87;86.63
46045;BME280;31781;54.094;13.428;2023-02-17T07:44:43;101145.88;;;8.88;86.37
46045;BME280;31781;54.094;13.428;2023-02-17T07:46:45;101141.97;;;8.90;86.22
46045;BME280;31781;54.094;13.428;2023-02-17T07:48:47;101131.28;;;8.89;86.57
46045;BME280;31781;54.094;13.428;2023-02-17T07:50:48;101124.63;;;8.91;86.87
46045;BME280;31781;54.094;13.428;2023-02-17T07:52:50;101118.19;;;8.92;87.02
46045;BME280;31781;54.094;13.428;2023-02-17T07:54:51;101110.50;;;8.96;86.68
46045;BME280;31781;54.094;13.428;2023-02-17T07:56:53;101114.25;;;8.95;87.10
46045;BME280;31781;54.094;13.428;2023-02-17T07:58:56;101113.03;;;8.97;86.91
46045;BME280;31781;54.094;13.428;2023-02-17T08:00:58;101116.38;;;8.99;86.91
46045;BME280;31781;54.094;13.428;2023-02-17T08:03:05;101101.81;;;9.00;87.32
46045;BME280;31781;54.094;13.428;2023-02-17T08:05:06;101092.63;;;9.01;86.81
46045;BME280;31781;54.094;13.428;2023-02-17T08:07:08;101099.72;;;9.02;87.10
46045;BME280;31781;54.094;13.428;2023-02-17T08:09:11;101093.94;;;9.05;86.87
46045;BME280;31781;54.094;13.428;2023-02-17T08:11:15;101078.47;;;9.06;87.74
46045;BME280;31781;54.094;13.428;2023-02-17T08:13:17;101077.25;;;9.08;87.23
46045;BME280;31781;54.094;13.428;2023-02-17T08:15:20;101077.25;;;9.08;86.99
46045;BME280;31781;54.094;13.428;2023-02-17T08:17:22;101075.19;;;9.10;87.11
46045;BME280;31781;54.094;13.428;2023-02-17T08:19:24;101064.16;;;9.12;87.32
46045;BME280;31781;54.094;13.428;2023-02-17T08:21:30;101060.19;;;9.14;87.39
46045;BME280;31781;54.094;13.428;2023-02-17T08:23:32;101061.69;;;9.17;86.70
46045;BME280;31781;54.094;13.428;2023-02-17T08:25:34;101048.78;;;9.19;87.10
46045;BME280;31781;54.094;13.428;2023-02-17T08:27:36;101045.84;;;9.20;87.11
46045;BME280;31781;54.094;13.428;2023-02-17T08:29:37;101051.94;;;9.22;87.65
46045;BME280;31781;54.094;13.428;2023-02-17T08:31:41;101044.44;;;9.24;87.46
46045;BME280;31781;54.094;13.428;2023-02-17T08:33:43;101034.22;;;9.26;87.82
46045;BME280;31781;54.094;13.428;2023-02-17T08:35:44;101020.25;;;9.29;87.24
46045;BME280;31781;54.094;13.428;2023-02-17T08:37:46;101020.09;;;9.31;88.01
46045;BME280;31781;54.094;13.428;2023-02-17T08:39:48;101025.31;;;9.33;88.01
46045;BME280;31781;54.094;13.428;2023-02-17T08:41:50;101013.41;;;9.34;87.93
46045;BME280;31781;54.094;13.428;2023-02-17T08:43:51;101014.88;;;9.36;87.39
46045;BME280;31781;54.094;13.428;2023-02-17T08:45:53;101005.06;;;9.35;87.61
46045;BME280;31781;54.094;13.428;2023-02-17T08:47:56;101003.00;;;9.37;87.33
46045;BME280;31781;54.094;13.428;2023-02-17T08:49:57;100995.69;;;9.38;87.49
46045;BME280;31781;54.094;13.428;2023-02-17T08:51:59;100995.88;;;9.36;88.21
46045;BME280;31781;54.094;13.428;2023-02-17T08:54:03;100986.72;;;9.37;88.00
46045;BME280;31781;54.094;13.428;2023-02-17T08:56:05;100986.31;;;9.40;87.81
46045;BME280;31781;54.094;13.428;2023-02-17T08:58:07;100982.75;;;9.40;87.16
46045;BME280;31781;54.094;13.428;2023-02-17T09:00:10;100985.06;;;9.43;87.20
46045;BME280;31781;54.094;13.428;2023-02-17T09:02:11;100984.25;;;9.42;86.84
46045;BME280;31781;54.094;13.428;2023-02-17T09:04:15;100975.06;;;9.43;87.17
46045;BME280;31781;54.094;13.428;2023-02-17T09:06:17;100966.72;;;9.45;87.03
46045;BME280;31781;54.094;13.428;2023-02-17T09:08:20;100961.28;;;9.45;86.89
46045;BME280;31781;54.094;13.428;2023-02-17T09:10:22;100961.91;;;9.47;87.33
46045;BME280;31781;54.094;13.428;2023-02-17T09:12:23;100965.28;;;9.49;87.30
46045;BME280;31781;54.094;13.428;2023-02-17T09:14:25;100943.56;;;9.49;87.11
46045;BME280;31781;54.094;13.428;2023-02-17T09:16:27;100950.66;;;9.50;87.35
46045;BME280;31781;54.094;13.428;2023-02-17T09:18:29;100947.75;;;9.51;87.40
46045;BME280;31781;54.094;13.428;2023-02-17T09:20:32;100941.28;;;9.52;87.24
46045;BME280;31781;54.094;13.428;2023-02-17T09:22:33;100932.75;;;9.55;86.12
46045;BME280;31781;54.094;13.428;2023-02-17T09:24:36;100925.63;;;9.54;87.13
46045;BME280;31781;54.094;13.428;2023-02-17T09:26:37;100921.03;;;9.55;87.38
46045;BME280;31781;54.094;13.428;2023-02-17T09:28:39;100911.63;;;9.57;87.42
46045;BME280;31781;54.094;13.428;2023-02-17T09:30:41;100920.44;;;9.59;87.17
46045;BME280;31781;54.094;13.428;2023-02-17T09:32:43;100905.84;;;9.60;87.79
46045;BME280;31781;54.094;13.428;2023-02-17T09:34:45;100893.91;;;9.61;87.35
46045;BME280;31781;54.094;13.428;2023-02-17T09:36:48;100890.16;;;9.62;87.24
46045;BME280;31781;54.094;13.428;2023-02-17T09:38:51;100885.38;;;9.64;87.35
46045;BME280;31781;54.094;13.428;2023-02-17T09:40:53;100868.88;;;9.66;86.97
46045;BME280;31781;54.094;13.428;2023-02-17T09:42:55;100870.56;;;9.67;87.42
46045;BME280;31781;54.094;13.428;2023-02-17T09:44:59;100864.09;;;9.68;87.19
46045;BME280;31781;54.094;13.428;2023-02-17T09:47:05;100863.03;;;9.69;87.54
46045;BME280;31781;54.094;13.428;2023-02-17T09:49:11;100854.69;;;9.70;87.28
46045;BME280;31781;54.094;13.428;2023-02-17T09:51:21;100854.28;;;9.73;87.38
46045;BME280;31781;54.094;13.428;2023-02-17T09:53:33;100846.75;;;9.75;87.18
46045;BME280;31781;54.094;13.428;2023-02-17T09:55:39;100843.84;;;9.77;86.77
46045;BME280;31781;54.094;13.428;2023-02-17T09:57:48;100829.63;;;9.75;87.82
46045;BME280;31781;54.094;13.428;2023-02-17T09:59:54;100830.25;;;9.77;87.96
46045;BME280;31781;54.094;13.428;2023-02-17T10:01:59;100816.50;;;9.78;87.11
46045;BME280;31781;54.094;13.428;2023-02-17T10:04:09;100793.69;;;9.79;87.15
46045;BME280;31781;54.094;13.428;2023-02-17T10:06:14;100806.47;;;9.79;87.60
46045;BME280;31781;54.094;13.428;2023-02-17T10:08:20;100803.53;;;9.81;87.56
46045;BME280;31781;54.094;13.428;2023-02-17T10:10:27;100796.84;;;9.83;87.43
46045;BME280;31781;54.094;13.428;2023-02-17T10:12:35;100797.91;;;9.82;87.41
46045;BME280;31781;54.094;13.428;2023-02-17T10:14:41;100799.78;;;9.82;87.77
46045;BME280;31781;54.094;13.428;2023-02-17T10:16:48;100789.94;;;9.81;87.91
46045;BME280;31781;54.094;13.428;2023-02-17T10:18:57;100788.69;;;9.83;88.03
46045;BME280;31781;54.094;13.428;2023-02-17T10:21:03;100783.25;;;9.83;87.76
46045;BME280;31781;54.094;13.428;2023-02-17T10:23:09;100784.31;;;9.82;88.04
46045;BME280;31781;54.094;13.428;2023-02-17T10:25:15;100773.22;;;9.84;87.88
46045;BME280;31781;54.094;13.428;2023-02-17T10:27:36;100767.19;;;9.88;88.01
46045;BME280;31781;54.094;13.428;2023-02-17T10:29:49;100770.94;;;9.87;87.95
46045;BME280;31781;54.094;13.428;2023-02-17T10:32:09;100753.78;;;9.87;88.60
46045;BME280;31781;54.094;13.428;2023-02-17T10:34:25;100754.63;;;9.87;88.58
46045;BME280;31781;54.094;13.428;2023-02-17T10:36:44;100742.31;;;9.91;87.83
46045;BME280;31781;54.094;13.428;2023-02-17T10:38:50;100736.03;;;9.91;88.40
46045;BME280;31781;54.094;13.428;2023-02-17T10:40:54;100733.13;;;9.92;88.69
46045;BME280;31781;54.094;13.428;2023-02-17T10:43:00;100726.84;;;9.92;88.37
46045;BME280;31781;54.094;13.428;2023-02-17T10:45:06;100720.16;;;9.94;87.84
46045;BME280;31781;54.094;13.428;2023-02-17T10:47:11;100716.41;;;9.95;87.93